Time;durP1;ratioP1;P1;durP2;ratioP2;P2;SDS_P1;SDS_P2;PMS_P1;PMS_P2;Temp;Humidity;BMP_temperature;BMP_pressure;BME280_temperature;BME280_humidity;BME280_pressure;Samples;Min_cycle;Max_cycle;Signal;HPM_P1;HPM_P2
2021/04/18 00:00:57;;;;;;;13.77;7.73;;;;;;;4.41;98.25;101437.22;4986354;28;20056;-82
2021/04/18 00:03:23;;;;;;;10.67;8.00;;;;;;;4.36;98.23;101428.38;4984073;28;20046;-82
2021/04/18 00:05:50;;;;;;;13.37;8.37;;;;;;;4.41;98.51;101428.47;4967855;28;20046;-82
2021/04/18 00:08:16;;;;;;;13.80;8.03;;;;;;;4.52;97.72;101421.69;4974413;28;20050;-81
2021/04/18 00:10:43;;;;;;;12.77;8.00;;;;;;;4.55;98.81;101423.50;4978396;28;20041;-81
2021/04/18 00:13:11;;;;;;;13.37;7.90;;;;;;;4.43;98.52;101422.41;4988146;28;20038;-82
2021/04/18 00:15:42;;;;;;;11.10;8.13;;;;;;;4.40;98.78;101426.72;4966801;28;20065;-81
2021/04/18 00:18:12;;;;;;;12.37;7.53;;;;;;;4.38;99.37;101431.94;4992278;28;20056;-82
2021/04/18 00:20:40;;;;;;;11.30;7.57;;;;;;;4.26;100.00;101431.72;4967423;28;20054;-82
2021/04/18 00:23:06;;;;;;;14.40;7.97;;;;;;;4.32;100.00;101426.59;4990919;28;20034;-82
2021/04/18 00:25:32;;;;;;;15.77;8.50;;;;;;;4.34;100.00;101417.03;4986820;28;20053;-82
2021/04/18 00:27:58;;;;;;;8.93;7.40;;;;;;;4.26;100.00;101429.09;4991956;28;20038;-82
2021/04/18 00:30:26;;;;;;;18.63;9.33;;;;;;;4.30;100.00;101427.44;4990863;28;20050;-82
2021/04/18 00:32:59;;;;;;;14.20;7.47;;;;;;;4.29;100.00;101423.03;5004002;28;20064;-81
2021/04/18 00:35:25;;;;;;;15.47;7.87;;;;;;;4.33;100.00;101419.63;4981219;28;20104;-82
2021/04/18 00:37:51;;;;;;;15.90;8.33;;;;;;;4.36;100.00;101424.91;4986307;28;20521;-82
2021/04/18 00:40:22;;;;;;;15.67;7.87;;;;;;;4.33;100.00;101419.63;4984103;28;20495;-81
2021/04/18 00:42:48;;;;;;;15.77;7.90;;;;;;;4.33;100.00;101417.88;4988060;28;20053;-82
2021/04/18 00:45:15;;;;;;;13.07;8.00;;;;;;;4.35;100.00;101418.78;4989977;28;20056;-83
2021/04/18 00:47:49;;;;;;;13.20;8.43;;;;;;;4.43;100.00;101413.69;4983699;28;20046;-82
2021/04/18 00:50:19;;;;;;;;;;;;;;;4.44;100.00;101411.09;4970767;28;20058;-82
2021/04/18 00:52:49;;;;;;;13.80;8.60;;;;;;;4.48;100.00;101418.16;4964400;28;20406;-82
2021/04/18 00:55:15;;;;;;;16.17;10.87;;;;;;;4.55;100.00;101411.28;4989201;28;20042;-81
2021/04/18 00:57:42;;;;;;;19.23;10.40;;;;;;;4.59;100.00;101407.84;4990103;28;20046;-81
2021/04/18 01:00:09;;;;;;;18.27;10.37;;;;;;;4.46;100.00;101411.13;4966332;28;20053;-81
2021/04/18 01:02:35;;;;;;;18.10;11.93;;;;;;;4.57;100.00;101406.06;5005548;28;20049;-82
2021/04/18 01:05:03;;;;;;;17.77;12.03;;;;;;;4.58;100.00;101407.81;4988724;28;20034;-81
2021/04/18 01:07:30;;;;;;;21.33;12.40;;;;;;;4.50;100.00;101399.84;4988739;28;20546;-81
2021/04/18 01:09:57;;;;;;;19.03;10.63;;;;;;;4.62;100.00;101401.78;4970746;28;20672;-81
2021/04/18 01:12:24;;;;;;;22.80;14.07;;;;;;;4.69;100.00;101414.09;4997141;28;20038;-81
2021/04/18 01:14:50;;;;;;;22.87;12.53;;;;;;;4.74;100.00;101404.59;4989804;28;20049;-81
2021/04/18 01:17:16;;;;;;;25.67;14.13;;;;;;;4.79;100.00;101409.06;4977726;28;20118;-82
2021/04/18 01:19:43;;;;;;;22.60;12.60;;;;;;;4.85;100.00;101397.75;4973649;28;20052;-82
2021/04/18 01:22:09;;;;;;;25.57;13.47;;;;;;;4.79;100.00;101405.53;4992827;28;20053;-82
2021/04/18 01:24:35;;;;;;;23.90;13.53;;;;;;;4.79;100.00;101402.91;4980379;28;20049;-82
2021/04/18 01:27:04;;;;;;;24.03;13.43;;;;;;;4.76;100.00;101406.38;4975016;28;20121;-81
2021/04/18 01:29:47;;;;;;;20.13;11.57;;;;;;;4.70;100.00;101411.50;4992061;28;20053;-81
2021/04/18 01:32:22;;;;;;;22.03;12.10;;;;;;;4.67;100.00;101405.34;4988347;28;20052;-81
2021/04/18 01:34:49;;;;;;;17.33;11.97;;;;;;;4.58;100.00;101408.69;4987908;28;20046;-81
2021/04/18 01:37:18;;;;;;;22.60;12.60;;;;;;;4.84;100.00;101408.22;4970276;28;20125;-81
2021/04/18 01:39:46;;;;;;;19.10;12.57;;;;;;;4.89;100.00;101417.03;4994384;28;20050;-81
2021/04/18 01:42:12;;;;;;;25.43;11.83;;;;;;;4.80;100.00;101413.44;4979018;28;20660;-81
2021/04/18 01:44:39;;;;;;;21.40;12.20;;;;;;;4.82;100.00;101407.34;4969796;28;20033;-81
2021/04/18 01:47:05;;;;;;;22.73;12.83;;;;;;;4.79;100.00;101398.59;4990190;28;20385;-82
2021/04/18 01:49:32;;;;;;;20.47;11.53;;;;;;;4.68;100.00;101402.75;4977464;28;20050;-81
2021/04/18 01:51:59;;;;;;;20.47;13.80;;;;;;;4.62;100.00;101404.38;4993695;28;20046;-81
2021/04/18 01:54:25;;;;;;;20.90;12.17;;;;;;;4.85;100.00;101394.28;4974987;28;20042;-81
2021/04/18 01:56:51;;;;;;;19.90;12.73;;;;;;;4.70;100.00;101398.41;4994141;28;20053;-81
2021/04/18 01:59:17;;;;;;;22.03;12.43;;;;;;;4.85;100.00;101400.38;4989504;28;20042;-81
2021/04/18 02:01:43;;;;;;;26.17;12.20;;;;;;;4.71;100.00;101401.94;4967369;28;20583;-81
2021/04/18 02:04:26;;;;;;;22.63;13.27;;;;;;;4.79;100.00;101405.53;4975203;28;20667;-80
2021/04/18 02:06:53;;;;;;;21.90;12.23;;;;;;;4.85;100.00;101391.66;4963894;28;20046;-81
2021/04/18 02:09:19;;;;;;;23.33;12.90;;;;;;;4.83;100.00;101402.09;4967713;28;20042;-81
2021/04/18 02:11:45;;;;;;;27.37;15.87;;;;;;;4.76;100.00;101402.88;5006196;28;20042;-80
2021/04/18 02:14:11;;;;;;;24.50;14.87;;;;;;;4.79;100.00;101409.06;5003918;28;20046;-81
2021/04/18 02:16:37;;;;;;;31.77;16.57;;;;;;;4.61;100.00;101407.88;4982541;28;20408;-81
2021/04/18 02:19:04;;;;;;;28.63;16.13;;;;;;;4.61;100.00;101406.13;4996730;23;20074;-83
2021/04/18 02:21:31;;;;;;;28.70;16.83;;;;;;;4.68;100.00;101408.00;4983405;28;20050;-82
2021/04/18 02:23:57;;;;;;;29.73;15.13;;;;;;;4.65;100.00;101412.31;4983692;28;20043;-83
2021/04/18 02:26:23;;;;;;;28.77;16.37;;;;;;;4.71;100.00;101415.03;4976251;28;20074;-82
2021/04/18 02:28:49;;;;;;;26.50;15.87;;;;;;;4.72;100.00;101406.31;4980519;28;20068;-82
2021/04/18 02:31:15;;;;;;;28.33;14.97;;;;;;;4.68;100.00;101414.97;4964117;28;20093;-82
2021/04/18 02:33:41;;;;;;;29.27;16.13;;;;;;;4.51;100.00;101412.94;4966950;28;20042;-84
2021/04/18 02:36:08;;;;;;;30.97;16.07;;;;;;;4.63;100.00;101409.66;4959722;28;20496;-84
2021/04/18 02:38:34;;;;;;;28.10;15.73;;;;;;;4.57;100.00;101412.19;4955886;28;20062;-84
2021/04/18 02:41:01;;;;;;;36.13;19.00;;;;;;;4.66;100.00;101409.72;4958192;28;20507;-84
2021/04/18 02:43:27;;;;;;;32.03;17.63;;;;;;;4.77;100.00;101417.72;4974381;28;20042;-84
2021/04/18 02:45:53;;;;;;;35.03;18.17;;;;;;;4.63;100.00;101421.88;4986027;28;20042;-84
2021/04/18 02:48:19;;;;;;;31.63;19.17;;;;;;;4.55;100.00;101427.00;4953115;28;20740;-84
2021/04/18 02:50:47;;;;;;;39.17;19.70;;;;;;;4.51;100.00;101419.94;4970410;28;20039;-84
2021/04/18 02:53:13;;;;;;;36.13;18.97;;;;;;;4.43;100.00;101425.03;4950241;28;20388;-84
2021/04/18 02:55:39;;;;;;;36.47;19.10;;;;;;;4.50;100.00;101412.94;4956408;28;20046;-83
2021/04/18 02:58:06;;;;;;;33.27;19.40;;;;;;;4.39;100.00;101423.22;4964307;28;20050;-84
2021/04/18 03:00:32;;;;;;;37.17;19.37;;;;;;;4.49;100.00;101419.03;4951595;28;20073;-83
2021/04/18 03:03:00;;;;;;;37.37;19.80;;;;;;;4.51;100.00;101410.34;4971989;28;20078;-83
2021/04/18 03:05:27;;;;;;;32.70;19.07;;;;;;;4.50;100.00;101413.81;4949839;28;20038;-84
2021/04/18 03:07:53;;;;;;;33.87;19.33;;;;;;;4.61;100.00;101418.34;4984143;28;20046;-83
2021/04/18 03:10:20;;;;;;;38.07;20.40;;;;;;;4.49;100.00;101416.41;4976412;28;20137;-83
2021/04/18 03:12:46;;;;;;;37.53;20.70;;;;;;;4.65;100.00;101423.66;4961795;28;20545;-83
2021/04/18 03:15:12;;;;;;;34.87;18.87;;;;;;;4.52;100.00;101413.84;4976393;28;20476;-84
2021/04/18 03:17:38;;;;;;;37.80;20.40;;;;;;;4.52;100.00;101413.84;4967339;28;20066;-83
2021/04/18 03:20:06;;;;;;;41.47;20.13;;;;;;;4.46;100.00;101413.75;4977912;28;20073;-84
2021/04/18 03:22:32;;;;;;;39.83;20.53;;;;;;;4.47;100.00;101411.16;4990361;28;20050;-84
2021/04/18 03:24:58;;;;;;;39.37;20.77;;;;;;;4.39;100.00;101411.88;4969315;28;20042;-84
2021/04/18 03:27:29;;;;;;;39.50;20.73;;;;;;;4.38;100.00;101411.00;4956708;28;20049;-84
2021/04/18 03:29:55;;;;;;;41.93;22.03;;;;;;;4.49;100.00;101400.72;4976890;28;20046;-84
2021/04/18 03:32:21;;;;;;;41.57;21.50;;;;;;;4.47;100.00;101407.66;4956315;28;20393;-84
2021/04/18 03:34:48;;;;;;;35.23;21.63;;;;;;;4.32;100.00;101410.91;4955300;28;20749;-84
2021/04/18 03:37:14;;;;;;;39.50;21.27;;;;;;;4.37;100.00;101397.88;4966252;28;20046;-84
2021/04/18 03:39:40;;;;;;;41.77;21.93;;;;;;;4.27;100.00;101401.19;4970769;28;20042;-83
2021/04/18 03:42:07;;;;;;;39.53;21.97;;;;;;;4.37;100.00;101401.41;4968590;28;20042;-84
2021/04/18 03:44:34;;;;;;;41.00;22.03;;;;;;;4.46;100.00;101401.56;4971565;28;20066;-83
2021/04/18 03:47:02;;;;;;;43.00;21.47;;;;;;;4.45;100.00;101402.38;4965923;28;20050;-83
2021/04/18 03:49:28;;;;;;;42.23;21.23;;;;;;;4.49;100.00;101412.06;4970070;28;20043;-83
2021/04/18 03:51:55;;;;;;;41.13;21.60;;;;;;;4.50;100.00;101402.47;5000046;28;20054;-83
2021/04/18 03:54:22;;;;;;;38.30;20.73;;;;;;;4.47;100.00;101398.06;4981247;28;20113;-84
2021/04/18 03:56:51;;;;;;;39.67;20.80;;;;;;;4.45;100.00;101410.22;4960577;28;20049;-84
2021/04/18 03:59:18;;;;;;;42.50;24.00;;;;;;;4.47;100.00;101405.94;4973390;28;20047;-82
2021/04/18 04:01:44;;;;;;;35.70;21.60;;;;;;;4.49;100.00;101409.44;4953713;28;20515;-84
2021/04/18 04:04:11;;;;;;;40.00;21.63;;;;;;;4.47;100.00;101410.28;4964950;28;20124;-84
2021/04/18 04:06:38;;;;;;;40.43;19.80;;;;;;;4.51;100.00;101409.47;4965545;28;20049;-83
2021/04/18 04:09:05;;;;;;;42.80;20.00;;;;;;;4.48;100.00;101409.41;4974462;28;20782;-84
2021/04/18 04:11:31;;;;;;;36.70;20.80;;;;;;;4.37;100.00;101417.09;4978497;28;20050;-85
2021/04/18 04:13:57;;;;;;;38.30;20.53;;;;;;;4.49;100.00;101408.56;4969803;28;20109;-84
2021/04/18 04:16:23;;;;;;;38.90;20.13;;;;;;;4.46;100.00;101401.56;4989909;28;20049;-84
2021/04/18 04:18:50;;;;;;;39.37;21.00;;;;;;;4.43;100.00;101409.31;4975900;28;20050;-83
2021/04/18 04:21:16;;;;;;;32.67;19.67;;;;;;;4.48;100.00;101414.66;4967558;28;20042;-85
2021/04/18 04:23:42;;;;;;;37.87;18.80;;;;;;;4.49;100.00;101414.66;4959915;28;20105;-84
2021/04/18 04:26:08;;;;;;;35.00;19.27;;;;;;;4.45;100.00;101410.22;4957078;28;20138;-84
2021/04/18 04:28:35;;;;;;;38.20;19.60;;;;;;;4.45;100.00;101404.13;4968124;28;20054;-84
2021/04/18 04:31:02;;;;;;;32.97;17.80;;;;;;;4.45;100.00;101417.19;4960826;28;20042;-84
2021/04/18 04:33:33;;;;;;;32.40;18.63;;;;;;;4.53;100.00;101413.84;4971846;28;20632;-84
2021/04/18 04:36:01;;;;;;;36.70;19.20;;;;;;;4.62;100.00;101422.72;4969828;28;20053;-83
2021/04/18 04:38:27;;;;;;;30.30;17.70;;;;;;;4.52;100.00;101421.69;4947031;28;20054;-84
2021/04/18 04:40:53;;;;;;;32.73;18.87;;;;;;;4.40;100.00;101418.88;4960586;28;20571;-85
2021/04/18 04:43:19;;;;;;;32.30;18.87;;;;;;;4.42;100.00;101420.66;4969492;28;20034;-84
2021/04/18 04:45:46;;;;;;;30.80;17.07;;;;;;;4.43;100.00;101427.66;4974645;28;20050;-84
2021/04/18 04:48:12;;;;;;;30.27;17.77;;;;;;;4.27;100.00;101420.38;4977489;28;20043;-83
2021/04/18 04:50:39;;;;;;;33.10;18.67;;;;;;;4.42;100.00;101418.03;4953464;28;20066;-85
2021/04/18 04:53:05;;;;;;;29.13;17.93;;;;;;;4.39;100.00;101425.84;4974010;28;20046;-84
2021/04/18 04:55:31;;;;;;;28.77;17.13;;;;;;;4.33;100.00;101420.50;4968013;28;20404;-84
2021/04/18 04:58:00;;;;;;;29.77;17.63;;;;;;;4.49;100.00;101412.06;4973395;28;20101;-85
2021/04/18 05:00:27;;;;;;;29.40;16.23;;;;;;;4.43;100.00;101413.69;4970785;28;20074;-84
2021/04/18 05:02:53;;;;;;;25.83;16.90;;;;;;;4.46;100.00;101416.38;4952221;28;20400;-84
2021/04/18 05:05:19;;;;;;;28.47;15.37;;;;;;;4.36;100.00;101410.06;4948009;28;20428;-84
2021/04/18 05:07:45;;;;;;;26.47;16.43;;;;;;;4.24;100.00;101412.50;4976387;28;20034;-84
2021/04/18 05:10:12;;;;;;;29.03;15.97;;;;;;;4.24;100.00;101417.72;4967083;28;20434;-84
2021/04/18 05:12:38;;;;;;;26.83;15.37;;;;;;;4.40;100.00;101406.69;4957501;28;20046;-84
2021/04/18 05:15:05;;;;;;;26.03;14.93;;;;;;;4.31;100.00;101411.75;4949435;28;20459;-84
2021/04/18 05:17:31;;;;;;;27.37;16.40;;;;;;;4.29;100.00;101407.34;4960908;28;20046;-84
2021/04/18 05:19:58;;;;;;;31.87;17.17;;;;;;;4.18;100.00;101405.41;4942210;28;20046;-83
2021/04/18 05:22:24;;;;;;;29.80;17.07;;;;;;;4.14;100.00;101407.97;4968997;28;20050;-83
2021/04/18 05:24:50;;;;;;;29.13;17.43;;;;;;;4.23;100.00;101408.13;4990160;28;20046;-82
2021/04/18 05:27:20;;;;;;;27.77;16.83;;;;;;;4.40;100.00;101396.22;4964287;28;20563;-83
2021/04/18 05:29:46;;;;;;;28.00;16.13;;;;;;;4.51;100.00;101399.88;4970267;28;20046;-84
2021/04/18 05:32:13;;;;;;;26.27;15.93;;;;;;;4.46;100.00;101404.16;4972898;28;20062;-84
2021/04/18 05:34:39;;;;;;;27.67;16.37;;;;;;;4.66;100.00;101412.31;4967557;28;20050;-85
2021/04/18 05:37:05;;;;;;;27.67;15.47;;;;;;;4.42;100.00;101430.25;4947573;28;20045;-84
2021/04/18 05:39:32;;;;;;;28.07;16.33;;;;;;;4.70;100.00;101447.25;4962687;28;20050;-84
2021/04/18 05:41:58;;;;;;;31.33;17.13;;;;;;;4.63;100.00;101442.81;4969435;28;20081;-84
2021/04/18 05:44:24;;;;;;;30.70;17.27;;;;;;;4.64;100.00;101440.22;4964989;28;20047;-84
2021/04/18 05:46:51;;;;;;;25.53;15.73;;;;;;;4.57;100.00;101450.56;4968983;28;20038;-83
2021/04/18 05:49:17;;;;;;;41.53;23.60;;;;;;;4.56;100.00;101443.56;4964916;28;20046;-83
2021/04/18 05:51:43;;;;;;;30.93;18.17;;;;;;;4.64;100.00;101441.97;4963013;28;20043;-83
2021/04/18 05:54:09;;;;;;;25.60;16.30;;;;;;;4.78;100.00;101425.59;4973559;28;20455;-84
2021/04/18 05:56:35;;;;;;;29.93;17.37;;;;;;;4.66;100.00;101422.78;4962902;28;20050;-83
2021/04/18 05:59:02;;;;;;;26.60;16.10;;;;;;;4.49;100.00;101417.28;4950955;28;20043;-83
2021/04/18 06:01:29;;;;;;;29.93;17.90;;;;;;;4.27;100.00;101436.09;4965343;28;20043;-83
2021/04/18 06:03:56;;;;;;;31.20;18.70;;;;;;;4.39;100.00;101430.19;4987554;28;20126;-83
2021/04/18 06:06:23;;;;;;;30.07;18.00;;;;;;;4.43;100.00;101438.09;4970880;28;20055;-84
2021/04/18 06:08:50;;;;;;;28.33;17.43;;;;;;;4.68;100.00;101434.16;4981428;28;20049;-84
2021/04/18 06:11:16;;;;;;;28.10;16.43;;;;;;;4.70;100.00;101437.69;4973674;28;20096;-84
2021/04/18 06:13:43;;;;;;;28.80;17.53;;;;;;;4.83;100.00;101427.41;4953815;28;20038;-82
2021/04/18 06:16:09;;;;;;;26.67;17.20;;;;;;;4.82;100.00;101431.78;4960559;28;20042;-82
2021/04/18 06:18:36;;;;;;;24.53;16.03;;;;;;;4.66;100.00;101435.88;4964264;28;20042;-84
2021/04/18 06:21:03;;;;;;;27.50;16.63;;;;;;;4.52;100.00;101438.25;4954461;28;20043;-83
2021/04/18 06:23:29;;;;;;;26.37;15.53;;;;;;;4.68;100.00;101436.78;4990889;28;20053;-83
2021/04/18 06:25:56;;;;;;;25.87;16.87;;;;;;;4.69;100.00;101451.63;4957339;28;20130;-86
2021/04/18 06:28:22;;;;;;;25.23;16.33;;;;;;;4.66;100.00;101441.13;4965338;28;20047;-84
2021/04/18 06:30:49;;;;;;;25.20;16.03;;;;;;;4.66;100.00;101440.22;4957528;28;20046;-83
2021/04/18 06:33:15;;;;;;;25.60;14.63;;;;;;;4.76;100.00;101429.94;4971147;28;20046;-83
2021/04/18 06:35:42;;;;;;;25.87;15.70;;;;;;;4.83;100.00;101435.25;4964698;28;20133;-83
2021/04/18 06:38:09;;;;;;;25.63;15.13;;;;;;;4.95;100.00;101432.81;4971403;28;20062;-83
2021/04/18 06:40:36;;;;;;;24.20;15.43;;;;;;;4.88;100.00;101433.63;4953207;28;20500;-83
2021/04/18 06:43:06;;;;;;;21.50;13.90;;;;;;;4.89;100.00;101444.09;4964207;28;20043;-84
2021/04/18 06:45:33;;;;;;;22.43;14.97;;;;;;;4.89;100.00;101438.88;4971167;28;20034;-83
2021/04/18 06:48:02;;;;;;;28.47;15.43;;;;;;;4.96;100.00;101445.97;4957717;28;20133;-82
2021/04/18 06:50:28;;;;;;;24.37;15.33;;;;;;;4.82;100.00;101450.09;4976036;28;20047;-83
2021/04/18 06:52:54;;;;;;;23.97;15.40;;;;;;;4.97;100.00;101442.47;4979027;28;20059;-83
2021/04/18 06:55:21;;;;;;;22.97;14.47;;;;;;;5.07;100.00;101433.91;4965356;28;20054;-83
2021/04/18 06:57:47;;;;;;;25.50;14.87;;;;;;;4.96;100.00;101439.81;4972235;28;20083;-85
2021/04/18 07:00:14;;;;;;;23.23;14.70;;;;;;;5.07;100.00;101439.13;5001257;28;20126;-85
2021/04/18 07:02:40;;;;;;;25.50;15.03;;;;;;;5.30;100.00;101433.34;4948899;28;20054;-83
2021/04/18 07:05:12;;;;;;;24.83;15.03;;;;;;;5.42;100.00;101428.25;4949508;28;20071;-85
2021/04/18 07:07:41;;;;;;;24.00;15.40;;;;;;;5.25;100.00;101433.25;4961531;28;20050;-84
2021/04/18 07:10:13;;;;;;;52.17;35.07;;;;;;;5.38;100.00;101431.66;4977099;28;20051;-85
2021/04/18 07:12:42;;;;;;;25.87;15.57;;;;;;;5.17;100.00;101426.16;4965470;28;20447;-85
2021/04/18 07:15:08;;;;;;;26.83;17.70;;;;;;;5.18;100.00;101425.28;4984680;28;20061;-84
2021/04/18 07:17:48;;;;;;;23.47;16.60;;;;;;;5.36;100.00;101429.03;4956659;28;20049;-85
2021/04/18 07:20:17;;;;;;;26.77;17.67;;;;;;;5.46;100.00;101422.16;4984120;28;20464;-82
2021/04/18 07:22:43;;;;;;;25.67;16.10;;;;;;;5.55;100.00;101418.78;4946429;28;20043;-84
2021/04/18 07:25:10;;;;;;;25.70;15.80;;;;;;;5.41;100.00;101425.63;4953884;28;20053;-85
2021/04/18 07:27:48;;;;;;;24.87;15.80;;;;;;;5.30;100.00;101425.47;4964216;28;20047;-85
2021/04/18 07:30:16;;;;;;;27.07;16.93;;;;;;;5.52;100.00;101426.63;4955483;28;20562;-84
2021/04/18 07:32:44;;;;;;;24.13;15.33;;;;;;;5.56;100.00;101416.19;4966822;28;20049;-83
2021/04/18 07:35:36;;;;;;;24.23;15.20;;;;;;;5.47;100.00;101413.47;4970207;28;20042;-86
2021/04/18 07:38:27;;;;;;;26.23;16.43;;;;;;;5.46;100.00;101410.81;4957873;28;20070;-85
2021/04/18 07:41:15;;;;;;;25.83;15.27;;;;;;;5.24;100.00;101422.78;4959495;28;20054;-85
2021/04/18 07:43:45;;;;;;;26.23;15.73;;;;;;;5.45;100.00;101436.13;4976339;28;20058;-84
2021/04/18 07:46:13;;;;;;;28.10;16.90;;;;;;;5.41;100.00;101457.94;4965601;28;20050;-81
2021/04/18 07:48:39;;;;;;;27.37;16.83;;;;;;;5.19;100.00;101463.72;4984732;28;20133;-80
2021/04/18 07:51:06;;;;;;;25.53;16.87;;;;;;;5.23;100.00;101455.94;4988544;28;20511;-82
2021/04/18 07:53:32;;;;;;;29.43;17.07;;;;;;;5.31;100.00;101459.56;4968366;28;20053;-83
2021/04/18 07:55:59;;;;;;;27.83;16.30;;;;;;;5.28;100.00;101463.84;4986839;28;20078;-82
2021/04/18 07:58:26;;;;;;;30.27;17.43;;;;;;;5.36;100.00;101465.72;4968588;28;20057;-82
2021/04/18 08:00:55;;;;;;;27.27;15.97;;;;;;;5.31;100.00;101471.78;4951991;28;20084;-84
2021/04/18 08:03:22;;;;;;;27.73;16.17;;;;;;;5.43;100.00;101465.81;4970465;28;20057;-82
2021/04/18 08:05:51;;;;;;;26.60;16.37;;;;;;;5.55;100.00;101456.38;4971370;28;20138;-83
2021/04/18 08:08:17;;;;;;;27.37;16.93;;;;;;;5.41;100.00;101446.56;4969079;28;20064;-85
2021/04/18 08:10:49;;;;;;;26.57;15.90;;;;;;;5.47;100.00;101446.66;4969552;28;20065;-82
2021/04/18 08:13:24;;;;;;;28.17;17.73;;;;;;;5.57;100.00;101446.78;4979515;28;20132;-85
2021/04/18 08:15:54;;;;;;;25.50;15.40;;;;;;;5.49;100.00;101442.31;4959513;28;20035;-83
2021/04/18 08:18:41;;;;;;;25.20;15.87;;;;;;;5.32;100.00;101439.47;4984525;28;20050;-85
2021/04/18 08:21:37;;;;;;;24.20;14.77;;;;;;;5.32;100.00;101442.09;4970476;28;20038;-81
2021/04/18 08:24:17;;;;;;;20.98;13.25;;;;;;;5.52;100.00;101435.34;4971738;28;20057;-82
2021/04/18 08:27:11;;;;;;;25.73;15.27;;;;;;;5.65;100.00;101413.69;4986256;28;20050;-85
2021/04/18 08:30:02;;;;;;;22.73;15.10;;;;;;;5.78;100.00;101404.19;4969134;28;20053;-83
2021/04/18 08:32:42;;;;;;;24.50;15.13;;;;;;;5.70;100.00;101389.25;4988237;28;20095;-83
2021/04/18 08:35:14;;;;;;;24.73;15.13;;;;;;;5.77;100.00;101393.69;4961900;28;20046;-83
2021/04/18 08:37:44;;;;;;;23.27;14.67;;;;;;;5.99;100.00;101398.34;4948214;28;20081;-84
2021/04/18 08:40:13;;;;;;;20.63;13.33;;;;;;;6.12;100.00;101394.97;4967584;28;20038;-84
2021/04/18 08:42:41;;;;;;;22.17;14.07;;;;;;;6.26;100.00;101391.59;4986555;28;20045;-84
2021/04/18 08:45:08;;;;;;;18.10;12.77;;;;;;;5.97;100.00;101396.56;4966296;28;20121;-80
2021/04/18 08:47:37;;;;;;;20.90;13.63;;;;;;;6.06;100.00;101397.56;4982268;28;20046;-84
2021/04/18 08:50:15;;;;;;;20.40;13.27;;;;;;;6.26;100.00;101402.09;4950111;28;20069;-81
2021/04/18 08:52:44;;;;;;;18.50;12.37;;;;;;;6.56;100.00;101393.59;4965230;28;20464;-83
2021/04/18 08:55:13;;;;;;;20.03;12.60;;;;;;;6.77;100.00;101392.00;4956157;28;20090;-85
2021/04/18 08:57:39;;;;;;;19.20;12.87;;;;;;;6.83;100.00;101395.56;4970868;28;20047;-83
2021/04/18 09:00:11;;;;;;;17.73;12.63;;;;;;;6.61;100.00;101392.75;4972570;28;20042;-82
2021/04/18 09:02:37;;;;;;;17.63;12.07;;;;;;;6.71;100.00;101407.72;4954773;28;20047;-83
2021/04/18 09:05:09;;;;;;;18.93;12.30;;;;;;;6.64;100.00;101403.31;4986227;28;20045;-84
2021/04/18 09:07:40;;;;;;;17.67;12.17;;;;;;;6.97;100.00;101407.00;4954436;28;20403;-83
2021/04/18 09:10:08;;;;;;;19.30;13.03;;;;;;;7.02;100.00;101407.91;4945518;28;20035;-83
2021/04/18 09:12:35;;;;;;;18.93;13.27;;;;;;;7.02;100.00;101407.91;5002318;28;20373;-85
2021/04/18 09:15:06;;;;;;;17.70;12.10;;;;;;;7.17;100.00;101397.50;4969307;28;20187;-82
2021/04/18 09:17:35;;;;;;;16.80;12.10;;;;;;;7.17;100.00;101405.38;4985075;28;20097;-82
2021/04/18 09:20:05;;;;;;;19.17;12.77;;;;;;;7.28;100.00;101408.06;4985695;28;20050;-82
2021/04/18 09:22:33;;;;;;;17.80;13.13;;;;;;;7.44;100.00;101398.50;4982039;28;20045;-84
2021/04/18 09:25:14;;;;;;;18.60;12.60;;;;;;;7.33;100.00;101406.34;4957300;28;20418;-82
2021/04/18 09:27:42;;;;;;;17.33;13.43;;;;;;;7.50;100.00;101402.03;4966455;28;20046;-80
2021/04/18 09:30:22;;;;;;;20.53;14.30;;;;;;;7.86;100.00;101406.53;4970682;28;20050;-80
2021/04/18 09:32:53;;;;;;;18.70;12.27;;;;;;;7.78;100.00;101396.88;4997722;28;20050;-81
2021/04/18 09:35:25;;;;;;;18.40;12.97;;;;;;;7.38;100.00;101404.59;4973816;28;20125;-82
2021/04/18 09:37:57;;;;;;;20.40;13.77;;;;;;;7.66;100.00;101396.84;4989419;28;20038;-82
2021/04/18 09:40:27;;;;;;;18.53;13.70;;;;;;;7.77;100.00;101405.63;4973017;28;20039;-79
2021/04/18 09:42:55;;;;;;;19.83;12.47;;;;;;;7.66;100.00;101396.84;4949219;28;20078;-80
2021/04/18 09:45:26;;;;;;;17.53;12.93;;;;;;;8.00;100.00;101403.94;4967289;28;20047;-82
2021/04/18 09:47:57;;;;;;;19.33;13.93;;;;;;;8.09;100.00;101387.28;4954407;28;20398;-80
2021/04/18 09:50:34;;;;;;;18.77;13.83;;;;;;;8.12;100.00;101406.59;4953392;28;20582;-81
2021/04/18 09:53:29;;;;;;;20.20;13.37;;;;;;;7.85;100.00;101402.16;4991540;28;20046;-79
2021/04/18 09:55:59;;;;;;;20.83;13.90;;;;;;;7.80;100.00;101401.25;4983553;28;20041;-82
2021/04/18 09:58:42;;;;;;;19.15;14.63;;;;;;;7.76;100.00;101404.75;4959121;28;20050;-82
2021/04/18 10:01:34;;;;;;;19.47;13.10;;;;;;;7.94;100.00;101414.44;4996335;28;20047;-82
2021/04/18 10:04:00;;;;;;;20.83;13.53;;;;;;;7.76;100.00;101407.38;4956632;28;20129;-81
2021/04/18 10:06:43;;;;;;;19.77;14.10;;;;;;;7.83;100.00;101401.28;4973111;28;20034;-82
2021/04/18 10:09:10;;;;;;;18.75;14.65;;;;;;;7.96;100.00;101410.06;4988092;28;20043;-83
2021/04/18 10:11:36;;;;;;;22.83;15.37;;;;;;;8.09;100.00;101403.97;4971525;28;20038;-80
2021/04/18 10:14:04;;;;;;;23.70;16.13;;;;;;;8.16;100.00;101396.94;4971805;28;20042;-84
2021/04/18 10:16:40;;;;;;;19.13;14.37;;;;;;;8.19;100.00;101378.53;4960181;28;20052;-83
2021/04/18 10:19:18;;;;;;;21.07;14.73;;;;;;;8.13;100.00;101378.50;4986393;28;20132;-83
2021/04/18 10:22:07;;;;;;;18.88;14.00;;;;;;;8.09;100.00;101384.66;4984639;28;20120;-82
2021/04/18 10:24:47;;;;;;;20.13;14.88;;;;;;;8.09;100.00;101382.03;4968997;28;20039;-85
2021/04/18 10:27:20;;;;;;;19.53;13.87;;;;;;;8.00;100.00;101397.81;4976072;28;20550;-81
2021/04/18 10:29:47;;;;;;;18.57;13.03;;;;;;;8.15;100.00;101398.69;4968587;28;20054;-81
2021/04/18 10:32:18;;;;;;;19.70;14.10;;;;;;;8.21;100.00;101395.19;5007344;28;20046;-82
2021/04/18 10:34:49;;;;;;;17.80;13.47;;;;;;;8.58;100.00;101382.97;4955696;28;20053;-81
2021/04/18 10:37:16;;;;;;;19.83;14.20;;;;;;;8.88;100.00;101382.00;4982500;28;20140;-82
2021/04/18 10:39:43;;;;;;;15.93;12.80;;;;;;;9.00;100.00;101387.28;4967660;28;20117;-81
2021/04/18 10:42:10;;;;;;;18.10;13.82;;;;;;;9.12;100.00;101380.22;4963232;28;20054;-81
2021/04/18 10:44:38;;;;;;;16.65;13.40;;;;;;;9.37;100.00;101371.31;4965788;28;20484;-82
2021/04/18 10:47:08;;;;;;;17.33;13.32;;;;;;;9.34;100.00;101376.63;4973056;28;20460;-82
2021/04/18 10:49:34;;;;;;;17.67;13.63;;;;;;;9.25;100.00;101381.94;4972213;28;20684;-81
2021/04/18 10:52:01;;;;;;;16.23;12.10;;;;;;;9.34;100.00;101373.13;4959170;28;20050;-82
2021/04/18 10:54:29;;;;;;;15.27;12.15;;;;;;;9.39;100.00;101376.59;4966928;28;20035;-81
2021/04/18 10:56:55;;;;;;;18.50;13.30;;;;;;;9.39;100.00;101369.56;4955976;28;20050;-81
2021/04/18 10:59:23;;;;;;;16.63;11.77;;;;;;;9.28;100.00;101374.88;4977584;28;20139;-83
2021/04/18 11:01:50;;;;;;;17.17;12.95;;;;;;;9.61;100.00;101370.34;4968076;28;20141;-82
2021/04/18 11:04:18;;;;;;;15.80;11.70;;;;;;;9.48;100.00;101380.06;4948524;28;20325;-83
2021/04/18 11:06:44;;;;;;;15.43;11.65;;;;;;;9.65;100.00;101373.81;4964240;28;20377;-81
2021/04/18 11:09:10;;;;;;;15.85;12.07;;;;;;;9.87;100.00;101367.56;4968131;28;20042;-85
2021/04/18 11:11:37;;;;;;;15.52;12.05;;;;;;;9.88;100.00;101370.16;4971767;28;20042;-81
2021/04/18 11:14:04;;;;;;;15.38;12.10;;;;;;;9.99;100.00;101379.78;4957402;28;20448;-82
2021/04/18 11:16:31;;;;;;;14.85;11.93;;;;;;;9.99;99.08;101377.13;4970559;28;20776;-81